sensor_id;sensor_type;location;lat;lon;timestamp;P1;durP1;ratioP1;P2;durP2;ratioP2
52858;SDS011;38721;53.098;6.596;2022-09-09T00:07:52;18.90;;;12.68;;
52858;SDS011;38721;53.098;6.596;2022-09-09T00:10:34;16.48;;;12.38;;
52858;SDS011;38721;53.098;6.596;2022-09-09T00:16:22;17.75;;;12.73;;
52858;SDS011;38721;53.098;6.596;2022-09-09T00:22:17;14.90;;;11.75;;
52858;SDS011;38721;53.098;6.596;2022-09-09T00:24:44;16.33;;;12.20;;
52858;SDS011;38721;53.098;6.596;2022-09-09T00:27:39;16.00;;;11.48;;
52858;SDS011;38721;53.098;6.596;2022-09-09T00:30:20;19.65;;;13.18;;
52858;SDS011;38721;53.098;6.596;2022-09-09T00:33:33;16.80;;;12.35;;
52858;SDS011;38721;53.098;6.596;2022-09-09T00:35:44;17.27;;;12.80;;
52858;SDS011;38721;53.098;6.596;2022-09-09T00:38:14;19.42;;;12.57;;
52858;SDS011;38721;53.098;6.596;2022-09-09T00:43:32;17.63;;;12.15;;
52858;SDS011;38721;53.098;6.596;2022-09-09T00:46:10;16.42;;;11.88;;
52858;SDS011;38721;53.098;6.596;2022-09-09T00:54:45;20.08;;;11.75;;
52858;SDS011;38721;53.098;6.596;2022-09-09T00:57:29;15.23;;;11.85;;
52858;SDS011;38721;53.098;6.596;2022-09-09T01:00:42;16.63;;;11.43;;
52858;SDS011;38721;53.098;6.596;2022-09-09T01:02:54;18.92;;;12.35;;
52858;SDS011;38721;53.098;6.596;2022-09-09T01:05:46;15.05;;;10.70;;
52858;SDS011;38721;53.098;6.596;2022-09-09T01:11:10;16.48;;;11.70;;
52858;SDS011;38721;53.098;6.596;2022-09-09T01:13:45;13.52;;;11.15;;
52858;SDS011;38721;53.098;6.596;2022-09-09T01:16:18;16.05;;;11.13;;
52858;SDS011;38721;53.098;6.596;2022-09-09T01:18:44;15.25;;;11.15;;
52858;SDS011;38721;53.098;6.596;2022-09-09T01:29:00;14.73;;;11.82;;
52858;SDS011;38721;53.098;6.596;2022-09-09T01:32:01;17.30;;;11.65;;
52858;SDS011;38721;53.098;6.596;2022-09-09T01:34:20;16.23;;;12.07;;
52858;SDS011;38721;53.098;6.596;2022-09-09T01:36:55;15.75;;;10.95;;
52858;SDS011;38721;53.098;6.596;2022-09-09T01:39:22;17.80;;;11.27;;
52858;SDS011;38721;53.098;6.596;2022-09-09T01:41:48;20.55;;;11.98;;
52858;SDS011;38721;53.098;6.596;2022-09-09T01:44:14;16.38;;;11.80;;
52858;SDS011;38721;53.098;6.596;2022-09-09T01:46:43;19.17;;;11.43;;
52858;SDS011;38721;53.098;6.596;2022-09-09T01:49:09;16.80;;;11.95;;
52858;SDS011;38721;53.098;6.596;2022-09-09T01:51:36;21.02;;;12.98;;
52858;SDS011;38721;53.098;6.596;2022-09-09T01:54:03;19.00;;;11.77;;
52858;SDS011;38721;53.098;6.596;2022-09-09T01:56:35;23.45;;;13.93;;
52858;SDS011;38721;53.098;6.596;2022-09-09T02:04:45;17.45;;;12.32;;
52858;SDS011;38721;53.098;6.596;2022-09-09T02:07:19;19.60;;;11.68;;
52858;SDS011;38721;53.098;6.596;2022-09-09T02:10:16;19.33;;;11.60;;
52858;SDS011;38721;53.098;6.596;2022-09-09T02:12:53;16.65;;;11.55;;
52858;SDS011;38721;53.098;6.596;2022-09-09T02:15:29;16.95;;;11.77;;
52858;SDS011;38721;53.098;6.596;2022-09-09T02:18:01;16.88;;;11.70;;
52858;SDS011;38721;53.098;6.596;2022-09-09T02:20:33;15.85;;;11.50;;
52858;SDS011;38721;53.098;6.596;2022-09-09T02:23:02;17.27;;;12.02;;
52858;SDS011;38721;53.098;6.596;2022-09-09T02:25:30;16.77;;;12.10;;
52858;SDS011;38721;53.098;6.596;2022-09-09T02:27:58;17.48;;;11.20;;
52858;SDS011;38721;53.098;6.596;2022-09-09T02:30:28;15.82;;;11.05;;
52858;SDS011;38721;53.098;6.596;2022-09-09T02:32:57;19.63;;;11.00;;
52858;SDS011;38721;53.098;6.596;2022-09-09T02:35:24;14.98;;;10.63;;
52858;SDS011;38721;53.098;6.596;2022-09-09T02:37:53;18.27;;;10.68;;
52858;SDS011;38721;53.098;6.596;2022-09-09T02:40:21;16.55;;;11.00;;
52858;SDS011;38721;53.098;6.596;2022-09-09T02:42:48;16.90;;;11.45;;
52858;SDS011;38721;53.098;6.596;2022-09-09T02:45:23;16.48;;;11.25;;
52858;SDS011;38721;53.098;6.596;2022-09-09T02:56:38;12.23;;;9.45;;
52858;SDS011;38721;53.098;6.596;2022-09-09T02:59:11;13.80;;;9.05;;
52858;SDS011;38721;53.098;6.596;2022-09-09T03:01:40;13.77;;;9.05;;
52858;SDS011;38721;53.098;6.596;2022-09-09T03:04:06;15.95;;;9.35;;
52858;SDS011;38721;53.098;6.596;2022-09-09T03:06:32;14.75;;;8.65;;
52858;SDS011;38721;53.098;6.596;2022-09-09T03:09:00;13.23;;;8.60;;
52858;SDS011;38721;53.098;6.596;2022-09-09T03:11:28;11.68;;;8.55;;
52858;SDS011;38721;53.098;6.596;2022-09-09T03:13:54;13.13;;;8.90;;
52858;SDS011;38721;53.098;6.596;2022-09-09T03:16:21;11.13;;;8.02;;
52858;SDS011;38721;53.098;6.596;2022-09-09T03:18:47;11.55;;;7.88;;
52858;SDS011;38721;53.098;6.596;2022-09-09T03:21:14;11.45;;;7.05;;
52858;SDS011;38721;53.098;6.596;2022-09-09T03:23:40;13.02;;;7.47;;
52858;SDS011;38721;53.098;6.596;2022-09-09T03:26:06;12.18;;;7.88;;
52858;SDS011;38721;53.098;6.596;2022-09-09T03:28:32;12.25;;;7.03;;
52858;SDS011;38721;53.098;6.596;2022-09-09T03:31:01;11.02;;;6.80;;
52858;SDS011;38721;53.098;6.596;2022-09-09T03:33:29;21.85;;;7.20;;
52858;SDS011;38721;53.098;6.596;2022-09-09T03:35:56;21.33;;;5.80;;
52858;SDS011;38721;53.098;6.596;2022-09-09T03:38:25;16.85;;;4.68;;
52858;SDS011;38721;53.098;6.596;2022-09-09T03:40:52;10.02;;;4.15;;
52858;SDS011;38721;53.098;6.596;2022-09-09T03:43:26;14.25;;;4.90;;
52858;SDS011;38721;53.098;6.596;2022-09-09T03:45:54;13.73;;;5.07;;
52858;SDS011;38721;53.098;6.596;2022-09-09T03:48:23;14.55;;;4.65;;
52858;SDS011;38721;53.098;6.596;2022-09-09T03:50:51;11.10;;;5.25;;
52858;SDS011;38721;53.098;6.596;2022-09-09T03:53:19;9.52;;;5.20;;
52858;SDS011;38721;53.098;6.596;2022-09-09T03:55:47;9.57;;;5.20;;
52858;SDS011;38721;53.098;6.596;2022-09-09T03:58:14;8.68;;;4.93;;
52858;SDS011;38721;53.098;6.596;2022-09-09T04:00:40;8.32;;;5.40;;
52858;SDS011;38721;53.098;6.596;2022-09-09T04:03:10;7.15;;;4.50;;
52858;SDS011;38721;53.098;6.596;2022-09-09T04:05:36;8.32;;;5.40;;
52858;SDS011;38721;53.098;6.596;2022-09-09T04:08:08;11.18;;;5.28;;
52858;SDS011;38721;53.098;6.596;2022-09-09T04:10:34;6.05;;;4.47;;
52858;SDS011;38721;53.098;6.596;2022-09-09T04:13:03;8.68;;;4.88;;
52858;SDS011;38721;53.098;6.596;2022-09-09T04:15:30;7.72;;;4.35;;
52858;SDS011;38721;53.098;6.596;2022-09-09T04:17:56;6.38;;;4.22;;
52858;SDS011;38721;53.098;6.596;2022-09-09T04:20:25;11.02;;;4.80;;
52858;SDS011;38721;53.098;6.596;2022-09-09T04:22:50;9.75;;;5.07;;
52858;SDS011;38721;53.098;6.596;2022-09-09T04:25:16;9.80;;;5.10;;
52858;SDS011;38721;53.098;6.596;2022-09-09T04:27:42;6.80;;;4.43;;
52858;SDS011;38721;53.098;6.596;2022-09-09T04:30:11;6.82;;;5.07;;
52858;SDS011;38721;53.098;6.596;2022-09-09T04:32:38;9.10;;;5.22;;
52858;SDS011;38721;53.098;6.596;2022-09-09T04:35:03;8.48;;;5.28;;
52858;SDS011;38721;53.098;6.596;2022-09-09T04:37:29;9.15;;;5.68;;
52858;SDS011;38721;53.098;6.596;2022-09-09T04:39:55;10.38;;;6.15;;
52858;SDS011;38721;53.098;6.596;2022-09-09T04:42:21;9.68;;;6.95;;
52858;SDS011;38721;53.098;6.596;2022-09-09T04:44:46;11.98;;;6.53;;
52858;SDS011;38721;53.098;6.596;2022-09-09T04:47:15;9.43;;;6.20;;
52858;SDS011;38721;53.098;6.596;2022-09-09T04:49:40;12.65;;;7.13;;
52858;SDS011;38721;53.098;6.596;2022-09-09T04:52:09;12.27;;;7.50;;
52858;SDS011;38721;53.098;6.596;2022-09-09T04:54:35;10.88;;;7.13;;
52858;SDS011;38721;53.098;6.596;2022-09-09T04:57:01;13.13;;;8.05;;
52858;SDS011;38721;53.098;6.596;2022-09-09T04:59:27;10.80;;;7.43;;
52858;SDS011;38721;53.098;6.596;2022-09-09T05:01:52;14.35;;;8.30;;
52858;SDS011;38721;53.098;6.596;2022-09-09T05:04:20;15.13;;;8.02;;
52858;SDS011;38721;53.098;6.596;2022-09-09T05:06:46;12.05;;;7.50;;
52858;SDS011;38721;53.098;6.596;2022-09-09T05:09:12;13.82;;;8.85;;
52858;SDS011;38721;53.098;6.596;2022-09-09T05:11:37;15.20;;;9.00;;
52858;SDS011;38721;53.098;6.596;2022-09-09T05:14:03;12.00;;;8.40;;
52858;SDS011;38721;53.098;6.596;2022-09-09T05:16:30;11.30;;;8.40;;
52858;SDS011;38721;53.098;6.596;2022-09-09T05:18:59;14.35;;;8.75;;
52858;SDS011;38721;53.098;6.596;2022-09-09T05:21:24;17.73;;;8.88;;
52858;SDS011;38721;53.098;6.596;2022-09-09T05:23:51;15.93;;;9.07;;
52858;SDS011;38721;53.098;6.596;2022-09-09T05:26:18;15.43;;;9.48;;
52858;SDS011;38721;53.098;6.596;2022-09-09T05:28:45;13.77;;;9.50;;
52858;SDS011;38721;53.098;6.596;2022-09-09T05:31:13;15.75;;;9.65;;
52858;SDS011;38721;53.098;6.596;2022-09-09T05:33:40;17.27;;;9.80;;
52858;SDS011;38721;53.098;6.596;2022-09-09T05:36:09;15.15;;;10.25;;
52858;SDS011;38721;53.098;6.596;2022-09-09T05:38:39;16.55;;;9.85;;
52858;SDS011;38721;53.098;6.596;2022-09-09T05:41:08;15.52;;;9.18;;
52858;SDS011;38721;53.098;6.596;2022-09-09T05:43:36;15.07;;;10.30;;
52858;SDS011;38721;53.098;6.596;2022-09-09T05:46:06;15.63;;;10.55;;
52858;SDS011;38721;53.098;6.596;2022-09-09T05:48:34;15.15;;;10.15;;
52858;SDS011;38721;53.098;6.596;2022-09-09T05:51:02;14.27;;;10.40;;
52858;SDS011;38721;53.098;6.596;2022-09-09T05:53:29;13.18;;;10.18;;
52858;SDS011;38721;53.098;6.596;2022-09-09T05:56:03;16.15;;;10.68;;
52858;SDS011;38721;53.098;6.596;2022-09-09T05:58:31;13.60;;;9.73;;
52858;SDS011;38721;53.098;6.596;2022-09-09T06:01:06;14.43;;;10.40;;
52858;SDS011;38721;53.098;6.596;2022-09-09T06:03:35;12.73;;;8.82;;
52858;SDS011;38721;53.098;6.596;2022-09-09T06:06:05;17.48;;;10.27;;
52858;SDS011;38721;53.098;6.596;2022-09-09T06:08:42;15.70;;;9.20;;
52858;SDS011;38721;53.098;6.596;2022-09-09T06:11:10;11.70;;;8.55;;
52858;SDS011;38721;53.098;6.596;2022-09-09T06:13:43;14.35;;;8.35;;
52858;SDS011;38721;53.098;6.596;2022-09-09T06:16:10;11.90;;;8.90;;
52858;SDS011;38721;53.098;6.596;2022-09-09T06:18:42;10.98;;;8.70;;
52858;SDS011;38721;53.098;6.596;2022-09-09T06:21:09;14.27;;;8.77;;
52858;SDS011;38721;53.098;6.596;2022-09-09T06:23:40;13.27;;;8.63;;
52858;SDS011;38721;53.098;6.596;2022-09-09T06:26:08;12.60;;;9.02;;
52858;SDS011;38721;53.098;6.596;2022-09-09T06:28:39;11.52;;;9.00;;
52858;SDS011;38721;53.098;6.596;2022-09-09T06:31:09;14.80;;;9.15;;
52858;SDS011;38721;53.098;6.596;2022-09-09T06:33:37;11.48;;;7.95;;
52858;SDS011;38721;53.098;6.596;2022-09-09T06:36:16;11.75;;;8.57;;
52858;SDS011;38721;53.098;6.596;2022-09-09T06:38:43;13.55;;;9.00;;
52858;SDS011;38721;53.098;6.596;2022-09-09T06:41:10;10.98;;;8.50;;
52858;SDS011;38721;53.098;6.596;2022-09-09T06:43:38;10.73;;;8.13;;
52858;SDS011;38721;53.098;6.596;2022-09-09T06:46:12;13.30;;;8.50;;
52858;SDS011;38721;53.098;6.596;2022-09-09T06:48:43;10.98;;;8.68;;
52858;SDS011;38721;53.098;6.596;2022-09-09T06:51:11;10.75;;;8.30;;
52858;SDS011;38721;53.098;6.596;2022-09-09T06:53:39;12.88;;;8.63;;
52858;SDS011;38721;53.098;6.596;2022-09-09T06:58:42;11.98;;;8.43;;
52858;SDS011;38721;53.098;6.596;2022-09-09T07:01:09;9.90;;;8.23;;
52858;SDS011;38721;53.098;6.596;2022-09-09T07:03:37;10.30;;;7.75;;
52858;SDS011;38721;53.098;6.596;2022-09-09T07:06:04;10.73;;;7.47;;
52858;SDS011;38721;53.098;6.596;2022-09-09T07:08:35;14.13;;;8.18;;
52858;SDS011;38721;53.098;6.596;2022-09-09T07:11:02;11.15;;;8.30;;
52858;SDS011;38721;53.098;6.596;2022-09-09T07:13:32;11.90;;;8.60;;
52858;SDS011;38721;53.098;6.596;2022-09-09T07:16:05;10.73;;;8.02;;
52858;SDS011;38721;53.098;6.596;2022-09-09T07:18:32;10.93;;;8.20;;
52858;SDS011;38721;53.098;6.596;2022-09-09T07:20:59;9.77;;;8.00;;
52858;SDS011;38721;53.098;6.596;2022-09-09T07:23:26;10.30;;;8.02;;
52858;SDS011;38721;53.098;6.596;2022-09-09T07:25:54;12.98;;;7.68;;
52858;SDS011;38721;53.098;6.596;2022-09-09T07:28:20;10.68;;;7.68;;
52858;SDS011;38721;53.098;6.596;2022-09-09T07:30:53;8.73;;;7.32;;
52858;SDS011;38721;53.098;6.596;2022-09-09T07:33:22;12.07;;;7.30;;
52858;SDS011;38721;53.098;6.596;2022-09-09T07:35:51;11.63;;;7.70;;
52858;SDS011;38721;53.098;6.596;2022-09-09T07:38:18;12.40;;;7.55;;
52858;SDS011;38721;53.098;6.596;2022-09-09T07:40:45;9.30;;;7.22;;
52858;SDS011;38721;53.098;6.596;2022-09-09T07:43:11;11.45;;;7.25;;
52858;SDS011;38721;53.098;6.596;2022-09-09T07:45:42;8.18;;;6.85;;
52858;SDS011;38721;53.098;6.596;2022-09-09T07:48:08;7.65;;;6.28;;
52858;SDS011;38721;53.098;6.596;2022-09-09T07:50:37;8.80;;;6.63;;
52858;SDS011;38721;53.098;6.596;2022-09-09T07:53:02;8.35;;;6.82;;
52858;SDS011;38721;53.098;6.596;2022-09-09T07:55:30;8.90;;;6.22;;
52858;SDS011;38721;53.098;6.596;2022-09-09T07:57:56;7.55;;;5.78;;
52858;SDS011;38721;53.098;6.596;2022-09-09T08:00:21;8.98;;;5.88;;
52858;SDS011;38721;53.098;6.596;2022-09-09T08:02:48;7.15;;;5.97;;
52858;SDS011;38721;53.098;6.596;2022-09-09T08:05:14;6.25;;;5.65;;
52858;SDS011;38721;53.098;6.596;2022-09-09T08:07:41;8.13;;;6.13;;
52858;SDS011;38721;53.098;6.596;2022-09-09T08:10:07;7.35;;;5.30;;
52858;SDS011;38721;53.098;6.596;2022-09-09T08:12:36;7.97;;;5.45;;
52858;SDS011;38721;53.098;6.596;2022-09-09T08:15:02;8.63;;;5.35;;
52858;SDS011;38721;53.098;6.596;2022-09-09T08:17:28;8.57;;;5.40;;
52858;SDS011;38721;53.098;6.596;2022-09-09T08:19:53;7.95;;;5.10;;
52858;SDS011;38721;53.098;6.596;2022-09-09T08:22:19;7.85;;;5.00;;
52858;SDS011;38721;53.098;6.596;2022-09-09T08:24:45;9.15;;;5.30;;
52858;SDS011;38721;53.098;6.596;2022-09-09T08:27:15;7.63;;;5.22;;
52858;SDS011;38721;53.098;6.596;2022-09-09T08:29:41;9.02;;;5.43;;
52858;SDS011;38721;53.098;6.596;2022-09-09T08:32:06;7.35;;;5.00;;
52858;SDS011;38721;53.098;6.596;2022-09-09T08:34:32;7.63;;;5.15;;
52858;SDS011;38721;53.098;6.596;2022-09-09T08:36:58;8.52;;;4.88;;
52858;SDS011;38721;53.098;6.596;2022-09-09T08:39:23;7.40;;;5.00;;
52858;SDS011;38721;53.098;6.596;2022-09-09T08:47:24;7.75;;;4.60;;
52858;SDS011;38721;53.098;6.596;2022-09-09T08:50:27;6.10;;;4.80;;
52858;SDS011;38721;53.098;6.596;2022-09-09T08:53:00;7.15;;;4.95;;
52858;SDS011;38721;53.098;6.596;2022-09-09T08:55:45;9.65;;;5.70;;
52858;SDS011;38721;53.098;6.596;2022-09-09T08:58:20;7.93;;;4.70;;
52858;SDS011;38721;53.098;6.596;2022-09-09T09:01:02;8.27;;;4.70;;
52858;SDS011;38721;53.098;6.596;2022-09-09T09:09:08;7.90;;;4.38;;
52858;SDS011;38721;53.098;6.596;2022-09-09T09:11:44;12.02;;;4.57;;
52858;SDS011;38721;53.098;6.596;2022-09-09T09:14:20;6.68;;;4.63;;
52858;SDS011;38721;53.098;6.596;2022-09-09T09:16:58;7.70;;;4.55;;
52858;SDS011;38721;53.098;6.596;2022-09-09T09:19:27;6.40;;;4.00;;
52858;SDS011;38721;53.098;6.596;2022-09-09T09:27:32;10.23;;;3.90;;
52858;SDS011;38721;53.098;6.596;2022-09-09T09:29:59;11.52;;;4.13;;
52858;SDS011;38721;53.098;6.596;2022-09-09T09:32:42;6.57;;;3.83;;
52858;SDS011;38721;53.098;6.596;2022-09-09T09:35:16;7.93;;;3.63;;
52858;SDS011;38721;53.098;6.596;2022-09-09T09:37:42;8.23;;;3.63;;
52858;SDS011;38721;53.098;6.596;2022-09-09T09:42:53;9.48;;;3.85;;
52858;SDS011;38721;53.098;6.596;2022-09-09T09:45:28;9.90;;;3.88;;
52858;SDS011;38721;53.098;6.596;2022-09-09T09:48:08;6.03;;;3.13;;
52858;SDS011;38721;53.098;6.596;2022-09-09T09:50:51;5.30;;;3.13;;
52858;SDS011;38721;53.098;6.596;2022-09-09T09:53:41;10.55;;;3.90;;
52858;SDS011;38721;53.098;6.596;2022-09-09T09:56:12;8.38;;;2.80;;
52858;SDS011;38721;53.098;6.596;2022-09-09T10:01:22;9.55;;;3.10;;
52858;SDS011;38721;53.098;6.596;2022-09-09T10:06:43;7.03;;;2.95;;
52858;SDS011;38721;53.098;6.596;2022-09-09T10:09:23;6.63;;;2.42;;
52858;SDS011;38721;53.098;6.596;2022-09-09T10:17:05;5.38;;;2.78;;
52858;SDS011;38721;53.098;6.596;2022-09-09T10:23:04;8.70;;;2.65;;
52858;SDS011;38721;53.098;6.596;2022-09-09T10:25:57;7.47;;;2.28;;
52858;SDS011;38721;53.098;6.596;2022-09-09T10:31:53;8.05;;;3.33;;
52858;SDS011;38721;53.098;6.596;2022-09-09T10:34:55;5.95;;;2.50;;
52858;SDS011;38721;53.098;6.596;2022-09-09T10:40:34;6.00;;;2.13;;
52858;SDS011;38721;53.098;6.596;2022-09-09T10:45:47;3.70;;;1.88;;
52858;SDS011;38721;53.098;6.596;2022-09-09T10:56:13;7.25;;;2.08;;
52858;SDS011;38721;53.098;6.596;2022-09-09T11:01:49;8.68;;;2.15;;
52858;SDS011;38721;53.098;6.596;2022-09-09T11:04:28;5.68;;;1.80;;
52858;SDS011;38721;53.098;6.596;2022-09-09T11:07:07;10.75;;;2.03;;
52858;SDS011;38721;53.098;6.596;2022-09-09T11:09:46;5.93;;;1.40;;
52858;SDS011;38721;53.098;6.596;2022-09-09T11:12:18;5.20;;;1.70;;
52858;SDS011;38721;53.098;6.596;2022-09-09T11:14:49;7.15;;;1.83;;
52858;SDS011;38721;53.098;6.596;2022-09-09T11:19:52;4.72;;;1.65;;
52858;SDS011;38721;53.098;6.596;2022-09-09T11:44:44;4.40;;;1.50;;
52858;SDS011;38721;53.098;6.596;2022-09-09T11:52:43;5.00;;;1.63;;
52858;SDS011;38721;53.098;6.596;2022-09-09T11:55:29;6.95;;;1.83;;
52858;SDS011;38721;53.098;6.596;2022-09-09T12:00:41;6.28;;;1.80;;
52858;SDS011;38721;53.098;6.596;2022-09-09T12:04:00;7.20;;;2.08;;
52858;SDS011;38721;53.098;6.596;2022-09-09T12:05:56;5.82;;;1.95;;
52858;SDS011;38721;53.098;6.596;2022-09-09T12:08:27;4.45;;;1.40;;
52858;SDS011;38721;53.098;6.596;2022-09-09T12:10:55;8.20;;;2.10;;
52858;SDS011;38721;53.098;6.596;2022-09-09T12:13:23;5.05;;;1.55;;
52858;SDS011;38721;53.098;6.596;2022-09-09T12:15:54;5.40;;;1.52;;
52858;SDS011;38721;53.098;6.596;2022-09-09T12:18:22;8.07;;;1.90;;
52858;SDS011;38721;53.098;6.596;2022-09-09T12:20:54;4.50;;;1.60;;
52858;SDS011;38721;53.098;6.596;2022-09-09T12:23:37;6.38;;;1.73;;
52858;SDS011;38721;53.098;6.596;2022-09-09T12:29:14;6.45;;;1.90;;
52858;SDS011;38721;53.098;6.596;2022-09-09T12:37:45;6.50;;;2.20;;
52858;SDS011;38721;53.098;6.596;2022-09-09T12:40:20;9.05;;;2.22;;
52858;SDS011;38721;53.098;6.596;2022-09-09T12:42:50;7.28;;;2.40;;
52858;SDS011;38721;53.098;6.596;2022-09-09T12:45:18;4.95;;;1.70;;
52858;SDS011;38721;53.098;6.596;2022-09-09T12:47:47;4.75;;;1.80;;
52858;SDS011;38721;53.098;6.596;2022-09-09T12:50:22;6.22;;;2.08;;
52858;SDS011;38721;53.098;6.596;2022-09-09T12:52:59;5.22;;;1.92;;
52858;SDS011;38721;53.098;6.596;2022-09-09T12:55:35;5.18;;;1.90;;
52858;SDS011;38721;53.098;6.596;2022-09-09T12:58:03;6.63;;;1.70;;
52858;SDS011;38721;53.098;6.596;2022-09-09T13:00:31;5.53;;;1.80;;
52858;SDS011;38721;53.098;6.596;2022-09-09T13:03:02;2.85;;;1.58;;
52858;SDS011;38721;53.098;6.596;2022-09-09T13:05:41;3.72;;;1.25;;
52858;SDS011;38721;53.098;6.596;2022-09-09T13:08:11;3.75;;;1.45;;
52858;SDS011;38721;53.098;6.596;2022-09-09T13:10:48;5.10;;;1.73;;
52858;SDS011;38721;53.098;6.596;2022-09-09T13:13:30;6.55;;;1.85;;
52858;SDS011;38721;53.098;6.596;2022-09-09T13:18:37;5.40;;;1.70;;
52858;SDS011;38721;53.098;6.596;2022-09-09T13:21:08;9.27;;;2.05;;
52858;SDS011;38721;53.098;6.596;2022-09-09T13:23:34;6.38;;;1.70;;
52858;SDS011;38721;53.098;6.596;2022-09-09T13:28:31;6.28;;;1.65;;
52858;SDS011;38721;53.098;6.596;2022-09-09T13:33:29;3.30;;;1.55;;
52858;SDS011;38721;53.098;6.596;2022-09-09T13:35:56;5.15;;;1.75;;
52858;SDS011;38721;53.098;6.596;2022-09-09T13:38:24;5.50;;;1.60;;
52858;SDS011;38721;53.098;6.596;2022-09-09T13:40:54;5.22;;;1.70;;
52858;SDS011;38721;53.098;6.596;2022-09-09T13:43:27;4.82;;;1.60;;
52858;SDS011;38721;53.098;6.596;2022-09-09T13:46:21;4.10;;;1.40;;
52858;SDS011;38721;53.098;6.596;2022-09-09T13:49:02;5.80;;;1.50;;
52858;SDS011;38721;53.098;6.596;2022-09-09T13:51:35;5.68;;;1.63;;
52858;SDS011;38721;53.098;6.596;2022-09-09T13:54:04;4.28;;;1.30;;
52858;SDS011;38721;53.098;6.596;2022-09-09T13:56:32;3.10;;;1.27;;
52858;SDS011;38721;53.098;6.596;2022-09-09T13:58:59;4.43;;;1.35;;
52858;SDS011;38721;53.098;6.596;2022-09-09T14:01:25;3.15;;;1.23;;
52858;SDS011;38721;53.098;6.596;2022-09-09T14:03:52;3.78;;;1.30;;
52858;SDS011;38721;53.098;6.596;2022-09-09T14:06:18;2.20;;;0.88;;
52858;SDS011;38721;53.098;6.596;2022-09-09T14:08:46;2.78;;;1.15;;
52858;SDS011;38721;53.098;6.596;2022-09-09T14:11:14;2.30;;;0.98;;
52858;SDS011;38721;53.098;6.596;2022-09-09T14:13:40;3.40;;;1.55;;
52858;SDS011;38721;53.098;6.596;2022-09-09T14:16:05;3.72;;;1.17;;
52858;SDS011;38721;53.098;6.596;2022-09-09T14:18:31;4.43;;;1.35;;
52858;SDS011;38721;53.098;6.596;2022-09-09T14:20:57;4.00;;;1.25;;
52858;SDS011;38721;53.098;6.596;2022-09-09T14:23:23;4.00;;;1.40;;
52858;SDS011;38721;53.098;6.596;2022-09-09T14:25:49;3.67;;;1.20;;
52858;SDS011;38721;53.098;6.596;2022-09-09T14:28:16;2.05;;;0.90;;
52858;SDS011;38721;53.098;6.596;2022-09-09T14:30:45;4.00;;;1.00;;
52858;SDS011;38721;53.098;6.596;2022-09-09T14:33:14;3.35;;;1.20;;
52858;SDS011;38721;53.098;6.596;2022-09-09T14:35:41;4.82;;;1.35;;
52858;SDS011;38721;53.098;6.596;2022-09-09T14:38:07;3.88;;;1.45;;
52858;SDS011;38721;53.098;6.596;2022-09-09T14:40:37;3.25;;;1.33;;
52858;SDS011;38721;53.098;6.596;2022-09-09T14:43:04;2.40;;;1.27;;
52858;SDS011;38721;53.098;6.596;2022-09-09T14:45:30;3.15;;;1.30;;
52858;SDS011;38721;53.098;6.596;2022-09-09T14:47:56;3.25;;;1.33;;
52858;SDS011;38721;53.098;6.596;2022-09-09T14:50:22;4.47;;;1.40;;
52858;SDS011;38721;53.098;6.596;2022-09-09T14:52:49;4.20;;;2.05;;
52858;SDS011;38721;53.098;6.596;2022-09-09T14:55:15;3.95;;;1.20;;
52858;SDS011;38721;53.098;6.596;2022-09-09T14:57:42;3.53;;;1.35;;
52858;SDS011;38721;53.098;6.596;2022-09-09T15:00:08;4.82;;;1.38;;
52858;SDS011;38721;53.098;6.596;2022-09-09T15:02:36;3.50;;;1.40;;
52858;SDS011;38721;53.098;6.596;2022-09-09T15:05:02;3.63;;;1.52;;
52858;SDS011;38721;53.098;6.596;2022-09-09T15:07:29;5.10;;;1.58;;
52858;SDS011;38721;53.098;6.596;2022-09-09T15:09:57;4.13;;;1.10;;
52858;SDS011;38721;53.098;6.596;2022-09-09T15:12:23;3.67;;;1.27;;
52858;SDS011;38721;53.098;6.596;2022-09-09T15:14:49;2.58;;;0.77;;
52858;SDS011;38721;53.098;6.596;2022-09-09T15:17:15;3.47;;;0.90;;
52858;SDS011;38721;53.098;6.596;2022-09-09T15:19:41;2.30;;;0.73;;
52858;SDS011;38721;53.098;6.596;2022-09-09T15:22:07;2.58;;;0.90;;
52858;SDS011;38721;53.098;6.596;2022-09-09T15:24:36;1.60;;;0.60;;
52858;SDS011;38721;53.098;6.596;2022-09-09T15:27:02;1.50;;;0.70;;
52858;SDS011;38721;53.098;6.596;2022-09-09T15:29:28;2.05;;;0.80;;
52858;SDS011;38721;53.098;6.596;2022-09-09T15:31:54;2.03;;;0.80;;
52858;SDS011;38721;53.098;6.596;2022-09-09T15:34:22;1.65;;;0.80;;
52858;SDS011;38721;53.098;6.596;2022-09-09T15:36:51;1.35;;;0.60;;
52858;SDS011;38721;53.098;6.596;2022-09-09T15:39:17;1.77;;;0.80;;
52858;SDS011;38721;53.098;6.596;2022-09-09T15:41:44;2.28;;;0.85;;
52858;SDS011;38721;53.098;6.596;2022-09-09T15:44:12;2.42;;;0.90;;
52858;SDS011;38721;53.098;6.596;2022-09-09T15:46:39;3.95;;;0.90;;
52858;SDS011;38721;53.098;6.596;2022-09-09T15:51:45;2.60;;;1.05;;
52858;SDS011;38721;53.098;6.596;2022-09-09T15:54:16;2.70;;;0.98;;
52858;SDS011;38721;53.098;6.596;2022-09-09T15:56:43;2.08;;;1.02;;
52858;SDS011;38721;53.098;6.596;2022-09-09T15:59:10;4.15;;;1.30;;
52858;SDS011;38721;53.098;6.596;2022-09-09T16:01:36;2.67;;;1.10;;
52858;SDS011;38721;53.098;6.596;2022-09-09T16:04:04;2.05;;;0.98;;
52858;SDS011;38721;53.098;6.596;2022-09-09T16:06:30;3.47;;;1.10;;
52858;SDS011;38721;53.098;6.596;2022-09-09T16:08:57;2.97;;;1.02;;
52858;SDS011;38721;53.098;6.596;2022-09-09T16:11:33;3.60;;;1.35;;
52858;SDS011;38721;53.098;6.596;2022-09-09T16:14:01;3.38;;;1.15;;
52858;SDS011;38721;53.098;6.596;2022-09-09T16:16:29;3.20;;;1.02;;
52858;SDS011;38721;53.098;6.596;2022-09-09T16:18:59;3.80;;;1.27;;
52858;SDS011;38721;53.098;6.596;2022-09-09T16:21:31;3.25;;;1.20;;
52858;SDS011;38721;53.098;6.596;2022-09-09T16:24:00;2.70;;;1.10;;
52858;SDS011;38721;53.098;6.596;2022-09-09T16:26:28;3.63;;;1.15;;
52858;SDS011;38721;53.098;6.596;2022-09-09T16:28:56;2.05;;;0.82;;
52858;SDS011;38721;53.098;6.596;2022-09-09T16:31:27;4.35;;;1.20;;
52858;SDS011;38721;53.098;6.596;2022-09-09T16:34:00;3.80;;;1.20;;
52858;SDS011;38721;53.098;6.596;2022-09-09T16:36:26;2.38;;;1.20;;
52858;SDS011;38721;53.098;6.596;2022-09-09T16:38:58;2.10;;;1.23;;
52858;SDS011;38721;53.098;6.596;2022-09-09T16:41:25;2.95;;;1.45;;
52858;SDS011;38721;53.098;6.596;2022-09-09T16:43:58;3.40;;;1.20;;
52858;SDS011;38721;53.098;6.596;2022-09-09T16:46:30;3.35;;;1.40;;
52858;SDS011;38721;53.098;6.596;2022-09-09T16:48:58;2.65;;;1.38;;
52858;SDS011;38721;53.098;6.596;2022-09-09T16:51:26;2.03;;;1.27;;
52858;SDS011;38721;53.098;6.596;2022-09-09T16:53:57;3.58;;;1.33;;
52858;SDS011;38721;53.098;6.596;2022-09-09T16:56:25;3.55;;;1.45;;
52858;SDS011;38721;53.098;6.596;2022-09-09T16:58:53;4.35;;;1.50;;
52858;SDS011;38721;53.098;6.596;2022-09-09T17:01:27;4.72;;;1.70;;
52858;SDS011;38721;53.098;6.596;2022-09-09T17:03:57;2.60;;;1.45;;
52858;SDS011;38721;53.098;6.596;2022-09-09T17:06:29;3.55;;;1.40;;
52858;SDS011;38721;53.098;6.596;2022-09-09T17:08:58;3.13;;;1.50;;
52858;SDS011;38721;53.098;6.596;2022-09-09T17:11:26;4.68;;;1.80;;
52858;SDS011;38721;53.098;6.596;2022-09-09T17:13:56;2.67;;;1.30;;
52858;SDS011;38721;53.098;6.596;2022-09-09T17:16:24;2.78;;;1.48;;
52858;SDS011;38721;53.098;6.596;2022-09-09T17:18:52;3.90;;;1.52;;
52858;SDS011;38721;53.098;6.596;2022-09-09T17:21:20;2.42;;;1.52;;
52858;SDS011;38721;53.098;6.596;2022-09-09T17:23:48;3.60;;;1.75;;
52858;SDS011;38721;53.098;6.596;2022-09-09T17:26:15;4.78;;;1.75;;
52858;SDS011;38721;53.098;6.596;2022-09-09T17:28:43;4.20;;;1.70;;
52858;SDS011;38721;53.098;6.596;2022-09-09T17:31:11;4.82;;;2.10;;
52858;SDS011;38721;53.098;6.596;2022-09-09T17:33:40;5.65;;;1.98;;